Time;durP1;ratioP1;P1;durP2;ratioP2;P2;SDS_P1;SDS_P2;PMS_P1;PMS_P2;Temp;Humidity;BMP_temperature;BMP_pressure;BME280_temperature;BME280_humidity;BME280_pressure;Samples;Min_cycle;Max_cycle;Signal;HPM_P1;HPM_P2
2023/09/26 00:01:31;;;;;;;0.05;0.05;;;;;;;10.40;100.00;97217.53;4933388;28;20159;-86
2023/09/26 00:04:16;;;;;;;0.10;0.10;;;;;;;10.52;100.00;97218.41;4934167;28;20317;-85
2023/09/26 00:07:02;;;;;;;0.00;0.00;;;;;;;10.64;100.00;97227.25;4934671;28;20039;-83
2023/09/26 00:09:48;;;;;;;0.10;0.10;;;;;;;10.72;100.00;97213.53;4932423;28;20055;-85
2023/09/26 00:12:37;;;;;;;0.10;0.10;;;;;;;10.79;100.00;97218.78;4933825;28;20596;-86
2023/09/26 00:15:24;;;;;;;0.10;0.10;;;;;;;10.75;100.00;97218.44;4934592;28;20043;-85
2023/09/26 00:18:09;;;;;;;0.00;0.00;;;;;;;10.74;100.00;97213.28;4934379;28;20117;-86
2023/09/26 00:20:55;;;;;;;0.10;0.10;;;;;;;10.65;100.00;97210.13;4936160;28;20063;-85
2023/09/26 00:23:41;;;;;;;0.00;0.00;;;;;;;10.55;100.00;97215.25;4938052;28;20712;-83
2023/09/26 00:26:27;;;;;;;0.10;0.10;;;;;;;10.45;100.00;97217.69;4926236;28;20054;-85
2023/09/26 00:29:13;;;;;;;0.10;0.10;;;;;;;10.35;100.00;97218.25;4937404;28;20086;-84
2023/09/26 00:31:59;;;;;;;0.10;0.10;;;;;;;10.27;100.00;97211.34;4936495;28;20081;-88
2023/09/26 00:34:45;;;;;;;0.10;0.10;;;;;;;10.21;100.00;97206.88;4926938;28;20050;-86
2023/09/26 00:37:34;;;;;;;0.10;0.10;;;;;;;10.15;100.00;97205.13;4938382;28;20058;-88
2023/09/26 00:40:21;;;;;;;0.10;0.10;;;;;;;10.09;100.00;97208.69;4936952;28;20070;-85
2023/09/26 00:43:07;;;;;;;0.08;0.08;;;;;;;10.03;100.00;97201.56;4936283;28;20058;-87
2023/09/26 00:45:59;;;;;;;0.10;0.10;;;;;;;10.03;100.00;97205.06;4923607;28;20047;-86
2023/09/26 00:48:45;;;;;;;0.00;0.00;;;;;;;10.03;100.00;97206.91;4938098;28;20636;-87
2023/09/26 00:51:31;;;;;;;0.10;0.10;;;;;;;10.00;100.00;97202.03;4937139;28;20118;-86
2023/09/26 00:54:17;;;;;;;0.00;0.00;;;;;;;9.96;100.00;97201.69;4937687;28;20138;-85
2023/09/26 00:57:04;;;;;;;0.10;0.10;;;;;;;9.89;100.00;97198.28;4934957;28;20194;-85
2023/09/26 00:59:50;;;;;;;0.10;0.10;;;;;;;9.90;100.00;97209.78;4924398;29;20086;-86
2023/09/26 01:02:36;;;;;;;0.00;0.00;;;;;;;9.82;100.00;97202.06;4936549;28;20062;-88
2023/09/26 01:05:22;;;;;;;0.10;0.10;;;;;;;9.82;100.00;97204.75;4916761;28;20050;-84
2023/09/26 01:08:08;;;;;;;0.10;0.10;;;;;;;9.81;100.00;97200.44;4934290;28;20667;-84
2023/09/26 01:10:56;;;;;;;0.00;0.00;;;;;;;9.74;100.00;97201.34;4936965;28;20122;-86
2023/09/26 01:13:42;;;;;;;0.00;0.00;;;;;;;9.70;100.00;97207.34;4937260;28;20453;-86
2023/09/26 01:16:28;;;;;;;0.10;0.10;;;;;;;9.67;100.00;97203.28;4936324;28;20047;-86
2023/09/26 01:19:14;;;;;;;0.10;0.10;;;;;;;9.61;100.00;97190.00;4935510;28;20051;-84
2023/09/26 01:22:00;;;;;;;0.00;0.00;;;;;;;9.58;100.00;97199.28;4938610;28;20043;-86
2023/09/26 01:24:45;;;;;;;0.00;0.00;;;;;;;9.56;100.00;97193.31;4935805;28;20047;-87
2023/09/26 01:27:31;;;;;;;0.00;0.00;;;;;;;9.60;100.00;97189.19;4936807;28;20146;-85
2023/09/26 01:30:17;;;;;;;0.10;0.10;;;;;;;9.48;100.00;97175.75;4933343;28;20077;-86
2023/09/26 01:33:05;;;;;;;0.10;0.10;;;;;;;9.42;100.00;97181.19;4935483;28;20154;-86
2023/09/26 01:35:51;;;;;;;0.10;0.10;;;;;;;9.39;100.00;97182.44;4936222;28;20103;-86
2023/09/26 01:38:38;;;;;;;0.00;0.00;;;;;;;9.35;100.00;97183.94;4920438;28;20049;-86
2023/09/26 01:41:25;;;;;;;0.10;0.10;;;;;;;9.11;100.00;97174.94;4925652;28;20499;-85
2023/09/26 01:44:11;;;;;;;0.10;0.10;;;;;;;9.03;100.00;97175.25;4922141;28;20513;-86
2023/09/26 01:46:57;;;;;;;0.00;0.00;;;;;;;9.09;100.00;97170.84;4935347;28;20505;-84
2023/09/26 01:49:43;;;;;;;0.10;0.10;;;;;;;9.09;100.00;97162.84;4937670;28;20117;-88
2023/09/26 01:52:32;;;;;;;0.10;0.10;;;;;;;9.15;100.00;97162.78;4922235;28;20518;-86
2023/09/26 01:55:22;;;;;;;0.10;0.10;;;;;;;9.13;100.00;97161.38;4935910;28;20039;-83
2023/09/26 01:58:08;;;;;;;0.10;0.10;;;;;;;9.18;100.00;97156.16;4923604;28;20058;-85
2023/09/26 02:00:54;;;;;;;0.10;0.10;;;;;;;9.31;100.00;97158.69;4933771;28;20043;-83
2023/09/26 02:03:41;;;;;;;0.10;0.10;;;;;;;9.41;100.00;97158.97;4933744;28;20051;-84
2023/09/26 02:06:27;;;;;;;0.10;0.10;;;;;;;9.49;100.00;97157.84;4920990;28;20748;-88
2023/09/26 02:09:13;;;;;;;0.10;0.10;;;;;;;9.54;100.00;97154.53;4937279;28;20043;-86
2023/09/26 02:12:03;;;;;;;0.10;0.10;;;;;;;9.56;100.00;97150.56;4943022;28;20141;-83
2023/09/26 02:14:49;;;;;;;0.10;0.10;;;;;;;9.55;100.00;97151.63;4948441;28;20125;-83
2023/09/26 02:17:36;;;;;;;0.10;0.10;;;;;;;9.52;100.00;97160.09;4942833;28;20078;-85
2023/09/26 02:20:21;;;;;;;0.10;0.10;;;;;;;9.46;100.00;97155.66;4937164;28;20043;-86
2023/09/26 02:23:07;;;;;;;0.10;0.10;;;;;;;9.36;100.00;97144.69;4922969;28;20050;-84
2023/09/26 02:25:53;;;;;;;0.10;0.10;;;;;;;9.29;100.00;97159.97;4937581;28;20410;-85
2023/09/26 02:28:41;;;;;;;0.10;0.10;;;;;;;9.20;100.00;97157.59;4936279;28;20526;-85
2023/09/26 02:31:27;;;;;;;0.10;0.10;;;;;;;9.17;100.00;97160.69;4920788;28;20059;-83
2023/09/26 02:34:13;;;;;;;0.10;0.10;;;;;;;9.22;100.00;97152.03;4934731;28;20521;-84
2023/09/26 02:36:59;;;;;;;0.10;0.10;;;;;;;9.23;100.00;97147.50;4936756;28;20046;-84
2023/09/26 02:39:44;;;;;;;0.10;0.10;;;;;;;9.26;100.00;97157.72;4923023;28;20055;-85
2023/09/26 02:42:33;;;;;;;0.10;0.10;;;;;;;9.26;100.00;97155.91;4934931;28;20506;-83
2023/09/26 02:45:19;;;;;;;0.00;0.00;;;;;;;9.25;100.00;97156.09;4923538;28;20126;-85
2023/09/26 02:48:06;;;;;;;0.10;0.10;;;;;;;9.26;100.00;97155.06;4937391;28;20051;-84
2023/09/26 02:50:52;;;;;;;0.10;0.10;;;;;;;9.25;100.00;97156.09;4936746;28;20047;-85
2023/09/26 02:53:38;;;;;;;0.10;0.10;;;;;;;9.20;100.00;97149.59;4935671;28;20055;-85
2023/09/26 02:56:24;;;;;;;0.10;0.10;;;;;;;9.10;100.00;97151.13;4933570;28;20726;-82
2023/09/26 02:59:10;;;;;;;0.10;0.10;;;;;;;9.06;100.00;97149.94;4935190;28;20049;-87
2023/09/26 03:01:56;;;;;;;0.10;0.10;;;;;;;9.02;100.00;97138.06;4921271;28;20063;-85
2023/09/26 03:04:47;;;;;;;0.10;0.10;;;;;;;9.07;100.00;97138.22;4936263;28;20897;-85
2023/09/26 03:07:32;;;;;;;0.10;0.10;;;;;;;9.06;100.00;97142.75;4934889;28;20051;-84
2023/09/26 03:10:19;;;;;;;0.10;0.10;;;;;;;9.09;100.00;97142.28;4909050;28;20047;-87
2023/09/26 03:13:05;;;;;;;0.10;0.10;;;;;;;9.08;100.00;97138.00;4935178;28;20054;-85
2023/09/26 03:15:55;;;;;;;0.10;0.10;;;;;;;9.06;100.00;97132.06;4935725;28;20073;-85
2023/09/26 03:18:41;;;;;;;0.10;0.10;;;;;;;9.04;100.00;97136.00;4922552;28;20066;-86
2023/09/26 03:21:27;;;;;;;0.10;0.10;;;;;;;9.04;100.00;97136.81;4935231;28;20043;-86
2023/09/26 03:24:13;;;;;;;0.10;0.10;;;;;;;9.00;100.00;97138.28;4934636;28;20043;-86
2023/09/26 03:26:59;;;;;;;0.10;0.10;;;;;;;8.99;100.00;97136.66;4936493;28;20051;-86
2023/09/26 03:29:46;;;;;;;0.10;0.10;;;;;;;8.94;100.00;97137.31;4934047;28;20042;-86
2023/09/26 03:32:33;;;;;;;0.10;0.10;;;;;;;8.93;100.00;97149.03;4920872;28;20232;-85
2023/09/26 03:35:18;;;;;;;0.10;0.10;;;;;;;8.90;100.00;97143.34;4935108;28;20280;-87
2023/09/26 03:38:05;;;;;;;0.10;0.10;;;;;;;8.90;100.00;97146.00;4920871;29;20083;-88
2023/09/26 03:41:01;;;;;;;0.10;0.10;;;;;;;8.88;100.00;97151.56;4921685;28;20414;-85
2023/09/26 03:43:47;;;;;;;0.10;0.10;;;;;;;8.82;100.00;97148.97;4935571;28;20178;-86
2023/09/26 03:46:33;;;;;;;0.10;0.10;;;;;;;8.84;100.00;97141.53;4936438;28;20039;-86
2023/09/26 03:49:19;;;;;;;0.10;0.10;;;;;;;8.85;100.00;97143.97;4935634;28;20110;-87
2023/09/26 03:52:04;;;;;;;0.00;0.00;;;;;;;8.81;100.00;97150.00;4932322;28;20043;-86
2023/09/26 03:54:50;;;;;;;0.10;0.10;;;;;;;8.74;100.00;97135.91;4935842;28;20577;-87
2023/09/26 03:57:36;;;;;;;0.10;0.10;;;;;;;8.74;100.00;97149.25;4934938;28;20035;-86
2023/09/26 04:00:26;;;;;;;0.00;0.00;;;;;;;8.77;100.00;97146.13;4932461;28;20054;-84
2023/09/26 04:03:12;;;;;;;0.00;0.00;;;;;;;8.80;100.00;97151.03;4936568;28;20069;-87
2023/09/26 04:05:57;;;;;;;0.00;0.00;;;;;;;8.79;100.00;97144.84;4937866;28;20358;-87
2023/09/26 04:08:43;;;;;;;0.10;0.10;;;;;;;8.84;100.00;97138.88;4938774;28;20495;-87
2023/09/26 04:11:29;;;;;;;0.10;0.10;;;;;;;8.88;100.00;97140.09;4934314;28;20039;-87
2023/09/26 04:14:15;;;;;;;0.10;0.10;;;;;;;8.92;100.00;97138.59;4937274;28;20047;-86
2023/09/26 04:17:02;;;;;;;0.10;0.10;;;;;;;8.95;100.00;97138.16;4937266;28;20057;-87
2023/09/26 04:19:48;;;;;;;0.10;0.10;;;;;;;8.92;100.00;97127.91;4938614;28;20592;-82
2023/09/26 04:22:34;;;;;;;0.10;0.10;;;;;;;8.93;100.00;97125.00;4939554;28;20050;-84
2023/09/26 04:25:20;;;;;;;0.10;0.10;;;;;;;8.99;100.00;97117.97;4935674;28;20043;-88
2023/09/26 04:28:05;;;;;;;0.10;0.10;;;;;;;9.09;100.00;97125.47;4936967;28;20046;-87
2023/09/26 04:30:51;;;;;;;0.10;0.10;;;;;;;9.09;100.00;97126.28;4935415;28;20060;-85
2023/09/26 04:33:37;;;;;;;0.10;0.10;;;;;;;9.07;100.00;97124.88;4938512;28;20051;-86
2023/09/26 04:36:23;;;;;;;0.10;0.10;;;;;;;9.02;100.00;97122.84;4936226;28;20043;-87
2023/09/26 04:39:09;;;;;;;0.10;0.10;;;;;;;8.98;100.00;97118.19;4938072;28;20078;-86
2023/09/26 04:41:55;;;;;;;0.10;0.10;;;;;;;8.97;100.00;97121.91;4935706;28;20047;-87
2023/09/26 04:44:40;;;;;;;0.10;0.10;;;;;;;8.94;100.00;97120.50;4936230;28;20051;-86
2023/09/26 04:47:26;;;;;;;0.00;0.00;;;;;;;8.91;100.00;97119.09;4937679;28;20070;-88
2023/09/26 04:50:13;;;;;;;0.10;0.10;;;;;;;8.90;100.00;97108.63;4936989;28;20120;-86
2023/09/26 04:52:59;;;;;;;0.10;0.10;;;;;;;8.88;100.00;97111.53;4935173;28;20434;-86
2023/09/26 04:55:45;;;;;;;0.10;0.10;;;;;;;8.77;100.00;97114.91;4936385;28;20047;-87
2023/09/26 04:58:33;;;;;;;0.10;0.10;;;;;;;8.75;100.00;97113.50;4936619;28;20126;-87
2023/09/26 05:01:19;;;;;;;0.00;0.00;;;;;;;8.78;100.00;97105.06;4936172;28;20043;-87
2023/09/26 05:04:05;;;;;;;0.10;0.10;;;;;;;8.83;100.00;97114.03;4935897;28;20083;-86
2023/09/26 05:06:50;;;;;;;0.10;0.10;;;;;;;8.85;100.00;97119.16;4937283;28;20167;-87
2023/09/26 05:09:40;;;;;;;0.10;0.10;;;;;;;8.81;100.00;97125.97;4940455;28;20050;-86
2023/09/26 05:12:25;;;;;;;0.10;0.10;;;;;;;8.79;100.00;97115.50;4938173;28;20098;-86
2023/09/26 05:15:14;;;;;;;0.10;0.10;;;;;;;8.79;100.00;97128.03;4927455;28;20495;-83
2023/09/26 05:18:00;;;;;;;0.10;0.10;;;;;;;8.75;100.00;97124.19;4941620;28;20090;-84
2023/09/26 05:20:46;;;;;;;0.10;0.10;;;;;;;8.67;100.00;97127.97;4943761;28;20062;-86
2023/09/26 05:23:32;;;;;;;0.00;0.00;;;;;;;8.60;100.00;97125.34;4940743;28;20085;-87
2023/09/26 05:26:18;;;;;;;0.10;0.10;;;;;;;8.62;100.00;97127.78;4939472;28;20071;-85
2023/09/26 05:29:04;;;;;;;0.10;0.10;;;;;;;8.67;100.00;97119.94;4940410;28;20047;-87
2023/09/26 05:31:50;;;;;;;0.10;0.10;;;;;;;8.86;100.00;97123.44;4942363;28;20056;-83
2023/09/26 05:34:36;;;;;;;0.10;0.10;;;;;;;9.01;100.00;97125.75;4946040;28;20613;-84
2023/09/26 05:37:22;;;;;;;0.10;0.10;;;;;;;9.10;100.00;97125.22;4940427;28;20043;-83
2023/09/26 05:40:09;;;;;;;0.10;0.10;;;;;;;9.07;100.00;97119.53;4937050;28;20294;-85
2023/09/26 05:42:54;;;;;;;0.10;0.10;;;;;;;9.16;100.00;97128.88;4940506;28;20326;-86
2023/09/26 05:45:40;;;;;;;0.10;0.10;;;;;;;9.04;100.00;97128.81;4940020;28;20059;-89
2023/09/26 05:48:26;;;;;;;0.10;0.10;;;;;;;8.92;100.00;97122.56;4938776;28;20410;-86
2023/09/26 05:51:12;;;;;;;0.10;0.10;;;;;;;8.95;100.00;97124.81;4936648;28;20052;-85
2023/09/26 05:53:58;;;;;;;0.10;0.10;;;;;;;9.01;100.00;97129.25;4938816;28;20087;-84
2023/09/26 05:56:44;;;;;;;0.10;0.10;;;;;;;9.10;100.00;97127.91;4940396;28;20658;-85
2023/09/26 05:59:30;;;;;;;0.10;0.10;;;;;;;9.16;100.00;97119.00;4936011;28;20121;-86
2023/09/26 06:02:16;;;;;;;0.10;0.10;;;;;;;9.27;100.00;97128.16;4937230;28;20098;-86
2023/09/26 06:05:02;;;;;;;0.10;0.10;;;;;;;9.36;100.00;97126.78;4937246;28;20656;-85
2023/09/26 06:07:49;;;;;;;0.10;0.10;;;;;;;9.41;100.00;97115.41;4938247;28;20048;-83
2023/09/26 06:10:35;;;;;;;0.10;0.10;;;;;;;9.52;100.00;97121.88;4938436;28;20825;-84
2023/09/26 06:13:21;;;;;;;0.10;0.10;;;;;;;9.64;100.00;97115.53;4936228;28;20065;-85
2023/09/26 06:16:08;;;;;;;0.10;0.10;;;;;;;9.80;100.00;97121.28;4939014;28;20368;-84
2023/09/26 06:18:55;;;;;;;0.10;0.10;;;;;;;9.94;100.00;97125.41;4938715;28;20046;-84
2023/09/26 06:21:42;;;;;;;0.10;0.10;;;;;;;10.05;100.00;97121.97;4925122;28;20521;-84
2023/09/26 06:24:28;;;;;;;0.10;0.10;;;;;;;10.13;100.00;97118.13;4938177;28;20045;-85
2023/09/26 06:27:13;;;;;;;0.10;0.10;;;;;;;10.26;100.00;97115.28;4923240;28;20041;-85
2023/09/26 06:29:59;;;;;;;0.00;0.00;;;;;;;10.36;100.00;97120.88;4939510;28;20047;-86
2023/09/26 06:32:45;;;;;;;0.10;0.10;;;;;;;10.40;100.00;97111.34;4935793;28;20043;-83
2023/09/26 06:35:31;;;;;;;0.10;0.10;;;;;;;10.47;100.00;97119.25;4935408;28;20463;-86
2023/09/26 06:38:17;;;;;;;0.10;0.10;;;;;;;10.53;100.00;97113.81;4938549;28;20046;-84
2023/09/26 06:41:06;;;;;;;0.10;0.10;;;;;;;10.61;100.00;97123.34;4938025;28;20035;-84
2023/09/26 06:43:52;;;;;;;0.10;0.10;;;;;;;10.69;100.00;97116.84;4939050;28;20459;-84
2023/09/26 06:46:38;;;;;;;0.10;0.10;;;;;;;10.77;100.00;97114.63;4938417;28;20194;-85
2023/09/26 06:49:23;;;;;;;0.10;0.10;;;;;;;10.87;100.00;97114.84;4937551;28;20043;-84
2023/09/26 06:52:10;;;;;;;0.10;0.10;;;;;;;10.91;100.00;97104.47;4938642;28;20039;-83
2023/09/26 06:54:55;;;;;;;0.10;0.10;;;;;;;11.02;100.00;97121.56;4936821;28;20047;-84
2023/09/26 06:57:41;;;;;;;0.10;0.10;;;;;;;11.08;100.00;97118.78;4937726;28;20503;-83
2023/09/26 07:00:27;;;;;;;0.10;0.10;;;;;;;11.15;100.00;97111.44;4934229;28;20544;-83
2023/09/26 07:03:13;;;;;;;0.00;0.00;;;;;;;11.25;100.00;97110.00;4935957;28;20051;-84
2023/09/26 07:06:08;;;;;;;0.10;0.10;;;;;;;11.39;100.00;97119.41;4937584;28;20840;-84
2023/09/26 07:08:57;;;;;;;0.10;0.10;;;;;;;11.48;100.00;97120.66;4935990;28;20094;-84
2023/09/26 07:11:43;;;;;;;0.10;0.10;;;;;;;11.58;100.00;97123.53;4938316;28;20043;-83
2023/09/26 07:14:33;;;;;;;0.10;0.10;;;;;;;11.68;100.00;97122.94;4936262;28;20596;-84
2023/09/26 07:17:19;;;;;;;0.10;0.10;;;;;;;11.76;100.00;97127.91;4936621;28;20140;-83
2023/09/26 07:20:13;;;;;;;0.10;0.10;;;;;;;11.80;100.00;97115.66;4922616;29;20067;-84
2023/09/26 07:23:00;;;;;;;0.10;0.10;;;;;;;11.91;100.00;97124.75;4937155;28;20406;-83
2023/09/26 07:25:47;;;;;;;0.10;0.10;;;;;;;11.97;100.00;97118.38;4935504;28;20061;-84
2023/09/26 07:28:33;;;;;;;0.10;0.10;;;;;;;12.07;100.00;97123.16;4937641;28;20137;-82
2023/09/26 07:31:19;;;;;;;0.10;0.10;;;;;;;12.18;100.00;97124.94;4936631;28;20051;-84
2023/09/26 07:34:04;;;;;;;0.10;0.10;;;;;;;12.24;100.00;97123.97;4937007;28;20635;-84
2023/09/26 07:36:51;;;;;;;0.10;0.10;;;;;;;12.35;100.00;97122.25;4937437;28;20043;-86
2023/09/26 07:39:37;;;;;;;0.10;0.10;;;;;;;12.43;100.00;97119.16;4937318;28;20046;-85
2023/09/26 07:42:23;;;;;;;0.10;0.10;;;;;;;12.50;100.00;97115.25;4936552;28;20408;-85
2023/09/26 07:45:10;;;;;;;0.10;0.10;;;;;;;12.64;100.00;97120.31;4922162;28;20500;-85
2023/09/26 07:47:56;;;;;;;0.10;0.10;;;;;;;12.78;100.00;97118.91;4936625;28;20053;-84
2023/09/26 07:50:41;;;;;;;0.10;0.10;;;;;;;12.90;100.00;97122.31;4936702;28;20186;-84
2023/09/26 07:53:27;;;;;;;0.10;0.10;;;;;;;12.99;100.00;97120.00;4935334;28;20043;-84
2023/09/26 07:56:13;;;;;;;0.10;0.10;;;;;;;13.07;100.00;97122.25;4936599;28;20749;-84
2023/09/26 07:58:59;;;;;;;0.10;0.10;;;;;;;13.20;100.00;97121.94;4934899;28;20043;-84
2023/09/26 08:01:45;;;;;;;0.10;0.10;;;;;;;13.35;100.00;97124.81;4936351;28;20077;-84
2023/09/26 08:04:31;;;;;;;0.10;0.10;;;;;;;13.52;100.00;97122.06;4932707;28;20855;-85
2023/09/26 08:07:17;;;;;;;0.10;0.10;;;;;;;13.68;100.00;97127.63;4935451;28;20040;-84
2023/09/26 08:10:03;;;;;;;0.10;0.10;;;;;;;13.82;100.00;97123.47;4936385;28;20105;-84
2023/09/26 08:12:50;;;;;;;0.10;0.10;;;;;;;13.96;100.00;97121.22;4936761;28;20065;-84
2023/09/26 08:15:36;;;;;;;0.10;0.10;;;;;;;14.09;100.00;97124.31;4937433;28;20591;-85
2023/09/26 08:18:23;;;;;;;0.10;0.10;;;;;;;14.23;100.00;97122.81;4936627;28;20039;-85
2023/09/26 08:21:09;;;;;;;0.10;0.10;;;;;;;14.40;100.00;97120.03;4937111;28;21210;-84
2023/09/26 08:23:56;;;;;;;0.00;0.00;;;;;;;14.56;100.00;97112.91;4936274;28;20184;-85
2023/09/26 08:26:42;;;;;;;0.05;0.05;;;;;;;14.70;100.00;97121.34;4937143;28;20133;-84
2023/09/26 08:29:28;;;;;;;0.10;0.10;;;;;;;14.80;100.00;97120.63;4935744;28;20592;-85
2023/09/26 08:32:13;;;;;;;0.10;0.10;;;;;;;14.89;100.00;97119.06;4935338;28;20047;-85
2023/09/26 08:34:59;;;;;;;0.10;0.10;;;;;;;14.98;100.00;97112.09;4936706;28;20046;-84
2023/09/26 08:37:45;;;;;;;0.05;0.05;;;;;;;15.02;100.00;97114.03;4938819;28;20039;-85
2023/09/26 08:40:31;;;;;;;0.10;0.10;;;;;;;15.17;100.00;97110.59;4935383;28;20050;-84
2023/09/26 08:43:24;;;;;;;0.00;0.00;;;;;;;15.18;100.00;97109.53;4940538;28;20461;-84
2023/09/26 08:46:10;;;;;;;0.10;0.10;;;;;;;15.26;100.00;97109.03;4940449;28;20129;-84
2023/09/26 08:48:59;;;;;;;0.10;0.10;;;;;;;15.31;100.00;97109.03;4940118;28;20051;-84
2023/09/26 08:51:45;;;;;;;0.10;0.10;;;;;;;15.36;100.00;97104.75;4947977;28;20058;-84
2023/09/26 08:54:31;;;;;;;0.00;0.00;;;;;;;15.37;100.00;97100.97;4952944;28;20047;-84
2023/09/26 08:57:18;;;;;;;0.10;0.10;;;;;;;15.34;100.00;97105.03;4952419;28;20134;-85
2023/09/26 09:00:08;;;;;;;0.10;0.10;;;;;;;15.44;100.00;97107.75;4940716;28;20047;-83
2023/09/26 09:02:53;;;;;;;0.10;0.10;;;;;;;15.62;100.00;97109.19;4938793;28;20344;-84
2023/09/26 09:05:42;;;;;;;0.10;0.10;;;;;;;15.60;100.00;97111.31;4937475;28;20070;-84
2023/09/26 09:08:28;;;;;;;0.10;0.10;;;;;;;15.55;100.00;97103.19;4938082;28;20132;-84
2023/09/26 09:11:31;;;;;;;0.10;0.10;;;;;;;15.68;100.00;97108.16;4936793;28;20146;-83
2023/09/26 09:14:30;;;;;;;0.10;0.10;;;;;;;15.69;100.00;97098.97;4938914;28;20039;-84
2023/09/26 09:17:16;;;;;;;0.10;0.10;;;;;;;15.78;100.00;97104.66;4940696;28;20501;-84
2023/09/26 09:20:02;;;;;;;0.05;0.05;;;;;;;15.90;100.00;97101.72;4928165;28;20038;-84
2023/09/26 09:22:58;;;;;;;0.10;0.10;;;;;;;15.96;100.00;97097.97;4940547;28;20372;-84
2023/09/26 09:25:44;;;;;;;0.10;0.10;;;;;;;16.03;100.00;97093.09;4941077;28;20966;-83
2023/09/26 09:28:30;;;;;;;0.03;0.03;;;;;;;16.22;100.00;97091.53;4933966;28;20770;-85
2023/09/26 09:31:16;;;;;;;0.10;0.10;;;;;;;16.34;100.00;97086.69;4926985;28;20302;-84
2023/09/26 09:34:03;;;;;;;0.10;0.10;;;;;;;16.40;100.00;97082.06;4906567;28;20190;-84
2023/09/26 09:36:49;;;;;;;0.00;0.00;;;;;;;16.57;100.00;97087.19;4939257;28;20051;-84
2023/09/26 09:39:34;;;;;;;0.00;0.00;;;;;;;16.73;100.00;97085.31;4938098;28;20515;-84
2023/09/26 09:42:22;;;;;;;0.10;0.10;;;;;;;16.92;100.00;97089.88;4938303;28;20538;-85
2023/09/26 09:45:09;;;;;;;0.10;0.10;;;;;;;16.95;100.00;97083.91;4941932;28;20137;-85
2023/09/26 09:48:01;;;;;;;0.10;0.10;;;;;;;16.93;100.00;97080.69;4942407;28;20077;-85
2023/09/26 09:50:53;;;;;;;0.10;0.10;;;;;;;16.92;100.00;97080.97;4939850;28;20043;-85
2023/09/26 09:53:52;;;;;;;0.03;0.03;;;;;;;17.24;100.00;97081.41;4933694;28;20050;-84
2023/09/26 09:56:39;;;;;;;0.10;0.10;;;;;;;17.30;100.00;97082.22;4940020;28;20039;-85
2023/09/26 09:59:28;;;;;;;0.10;0.10;;;;;;;17.54;100.00;97066.16;4935927;28;20493;-85
2023/09/26 10:02:17;;;;;;;0.10;0.10;;;;;;;17.83;100.00;97060.88;4920766;28;20063;-85
2023/09/26 10:05:12;;;;;;;0.10;0.10;;;;;;;18.20;100.00;97059.53;4938113;28;20055;-84
2023/09/26 10:08:00;;;;;;;0.10;0.10;;;;;;;18.40;100.00;97067.50;4938353;28;20062;-85
2023/09/26 10:10:46;;;;;;;0.10;0.10;;;;;;;19.36;100.00;97060.31;4938879;28;20054;-85
2023/09/26 10:13:32;;;;;;;0.10;0.10;;;;;;;20.27;100.00;97066.41;4937151;28;20039;-84
2023/09/26 10:16:19;;;;;;;0.10;0.10;;;;;;;21.62;100.00;97065.34;4938537;28;20052;-85
2023/09/26 10:19:05;;;;;;;0.10;0.10;;;;;;;23.51;89.15;97058.78;4939155;28;20051;-84
2023/09/26 10:21:53;;;;;;;0.10;0.10;;;;;;;24.39;80.64;97060.53;4939217;28;20754;-83
2023/09/26 10:24:48;;;;;;;0.10;0.10;;;;;;;25.39;74.40;97064.81;4939254;28;20515;-83
2023/09/26 10:27:34;;;;;;;0.10;0.10;;;;;;;25.62;68.51;97046.94;4937490;28;20458;-82
2023/09/26 10:30:20;;;;;;;0.13;0.13;;;;;;;25.60;65.90;97059.34;4937403;28;20363;-83
2023/09/26 10:33:06;;;;;;;0.10;0.10;;;;;;;25.47;66.56;97061.22;4938339;28;20046;-84
2023/09/26 10:36:01;;;;;;;0.10;0.10;;;;;;;25.03;67.60;97055.09;4927399;28;20043;-86
2023/09/26 10:39:07;;;;;;;0.10;0.10;;;;;;;26.67;56.71;97053.25;4934677;28;20054;-83
2023/09/26 10:42:22;;;;;;;0.10;0.10;;;;;;;27.57;53.42;97044.16;4938580;28;20051;-83
2023/09/26 10:45:09;;;;;;;0.10;0.10;;;;;;;28.23;49.64;97040.25;4923634;28;20332;-82
2023/09/26 10:47:55;;;;;;;0.10;0.10;;;;;;;29.13;44.80;97030.56;4936742;28;20059;-84
2023/09/26 10:50:41;;;;;;;0.10;0.10;;;;;;;30.06;45.95;97028.03;4906457;28;20592;-83
2023/09/26 10:53:27;;;;;;;0.10;0.10;;;;;;;30.46;38.40;97038.75;4935628;28;20164;-83
2023/09/26 10:56:14;;;;;;;0.10;0.10;;;;;;;29.53;41.01;97035.91;4936653;28;20074;-83
2023/09/26 10:59:02;;;;;;;0.10;0.10;;;;;;;29.14;43.04;97043.97;4935137;28;20574;-83
2023/09/26 11:01:49;;;;;;;0.10;0.10;;;;;;;29.72;42.25;97042.63;4936977;28;20509;-83
2023/09/26 11:04:35;;;;;;;0.10;0.10;;;;;;;30.69;39.08;97038.03;4935398;28;20134;-83
2023/09/26 11:07:20;;;;;;;0.10;0.10;;;;;;;31.38;36.94;97038.09;4936006;28;20047;-83
2023/09/26 11:10:15;;;;;;;0.10;0.10;;;;;;;29.33;41.58;97037.75;4906448;28;20070;-83
2023/09/26 11:13:02;;;;;;;0.10;0.10;;;;;;;29.95;39.15;97029.75;4937976;28;20411;-83
2023/09/26 11:15:52;;;;;;;0.10;0.10;;;;;;;31.08;37.67;97024.94;4936936;28;20047;-83
2023/09/26 11:18:38;;;;;;;0.10;0.10;;;;;;;31.30;35.58;97029.69;4937853;28;20585;-84
2023/09/26 11:21:24;;;;;;;0.10;0.10;;;;;;;31.42;36.38;97025.91;4936721;28;20062;-84
2023/09/26 11:24:25;;;;;;;0.10;0.10;;;;;;;30.19;38.61;97025.94;4937924;28;20054;-83
2023/09/26 11:27:11;;;;;;;0.10;0.10;;;;;;;30.16;37.77;97018.41;4936613;28;20137;-83
2023/09/26 11:30:01;;;;;;;0.10;0.10;;;;;;;31.68;35.67;97019.63;4936143;28;20117;-84
2023/09/26 11:32:54;;;;;;;0.10;0.10;;;;;;;31.58;35.62;97025.75;4934394;28;20174;-83
2023/09/26 11:35:40;;;;;;;0.10;0.10;;;;;;;31.54;35.37;97027.69;4936317;28;20075;-83
2023/09/26 11:38:25;;;;;;;0.10;0.10;;;;;;;32.67;33.91;97014.59;4935631;28;20568;-85
2023/09/26 11:41:12;;;;;;;0.10;0.10;;;;;;;32.63;32.54;97022.06;4936544;28;20114;-85
2023/09/26 11:44:08;;;;;;;0.10;0.10;;;;;;;32.63;32.47;97010.19;4919378;29;20050;-85
2023/09/26 11:46:55;;;;;;;0.10;0.10;;;;;;;31.66;35.22;97024.69;4935961;28;20039;-85
2023/09/26 11:49:41;;;;;;;0.10;0.10;;;;;;;31.76;35.24;97018.53;4905644;28;20393;-85
2023/09/26 11:52:28;;;;;;;0.10;0.10;;;;;;;32.77;32.75;97015.91;4934658;28;20439;-85
2023/09/26 11:55:17;;;;;;;0.10;0.10;;;;;;;32.23;33.01;97013.66;4937096;28;20031;-85
2023/09/26 11:58:03;;;;;;;;;;;;;;;33.31;32.01;97020.00;4937571;28;20157;-84
2023/09/26 12:00:50;;;;;;;0.10;0.10;;;;;;;33.73;32.30;97013.19;4933368;28;20563;-84
2023/09/26 12:03:36;;;;;;;0.10;0.10;;;;;;;33.67;31.19;97009.16;4935277;28;20043;-85
2023/09/26 12:06:22;;;;;;;0.10;0.10;;;;;;;32.58;32.33;97016.06;4934855;28;20529;-85
2023/09/26 12:09:20;;;;;;;0.10;0.10;;;;;;;33.19;31.37;97012.75;4936603;28;20046;-86
2023/09/26 12:12:06;;;;;;;0.10;0.10;;;;;;;34.49;29.40;97002.13;4938661;28;20047;-85
2023/09/26 12:15:14;;;;;;;0.10;0.10;;;;;;;34.70;29.77;97017.22;4957374;28;20075;-85
2023/09/26 12:18:02;;;;;;;0.10;0.10;;;;;;;33.76;29.43;97015.16;4955221;28;20125;-85
2023/09/26 12:20:53;;;;;;;0.10;0.10;;;;;;;33.85;30.23;97004.53;4940272;28;20071;-85
2023/09/26 12:23:39;;;;;;;0.10;0.10;;;;;;;34.39;28.80;97004.81;4940211;28;20133;-85
2023/09/26 12:26:25;;;;;;;0.10;0.10;;;;;;;34.11;30.32;97005.50;4938811;28;20058;-85
2023/09/26 12:29:11;;;;;;;0.05;0.05;;;;;;;34.50;29.79;96995.38;4937845;28;20221;-85
2023/09/26 12:31:58;;;;;;;0.10;0.10;;;;;;;34.75;29.29;96997.41;4936034;28;20043;-85
2023/09/26 12:34:44;;;;;;;0.00;0.00;;;;;;;37.25;28.04;96986.41;4937318;28;20043;-85
2023/09/26 12:37:30;;;;;;;0.10;0.10;;;;;;;35.08;28.43;96997.06;4936615;28;20540;-84
2023/09/26 12:40:16;;;;;;;0.10;0.10;;;;;;;35.05;28.66;96997.09;4937972;28;20039;-84
2023/09/26 12:43:02;;;;;;;0.10;0.10;;;;;;;35.26;28.30;97011.00;4938526;28;20054;-84
2023/09/26 12:45:48;;;;;;;0.10;0.10;;;;;;;35.06;29.02;96996.69;4939687;28;20079;-83
2023/09/26 12:48:34;;;;;;;0.10;0.10;;;;;;;35.53;28.15;96997.50;4910236;28;20050;-84
2023/09/26 12:51:20;;;;;;;0.10;0.10;;;;;;;35.54;27.92;96992.72;4920991;28;20047;-84
2023/09/26 12:54:06;;;;;;;0.10;0.10;;;;;;;36.51;28.12;96996.88;4937626;28;20094;-85
2023/09/26 12:56:52;;;;;;;0.10;0.10;;;;;;;39.08;26.04;96988.75;4938019;28;20072;-85
2023/09/26 12:59:37;;;;;;;0.00;0.00;;;;;;;38.87;23.40;96979.47;4937660;28;20041;-84
2023/09/26 13:02:23;;;;;;;0.08;0.08;;;;;;;36.90;26.05;96990.28;4936861;28;20053;-84
2023/09/26 13:05:09;;;;;;;0.10;0.10;;;;;;;35.02;28.51;96987.56;4925447;28;20150;-85